createdAt,value
2018-04-11T00:00:05.699Z,60.83
2018-04-11T00:02:33.332Z,56.60
2018-04-11T00:05:01.734Z,52.57
2018-04-11T00:07:29.355Z,51.00
2018-04-11T00:09:56.987Z,47.33
2018-04-11T00:12:24.615Z,42.13
2018-04-11T00:14:53.012Z,38.87
2018-04-11T00:17:20.656Z,39.03
2018-04-11T00:19:49.779Z,39.30
2018-04-11T00:22:17.415Z,35.67
2018-04-11T00:24:45.047Z,36.10
2018-04-11T00:27:12.679Z,39.07
2018-04-11T00:29:40.310Z,34.80
2018-04-11T00:32:07.983Z,31.87
2018-04-11T00:34:35.610Z,34.33
2018-04-11T00:37:03.238Z,32.10
2018-04-11T00:39:30.875Z,30.57
2018-04-11T00:41:58.499Z,33.47
2018-04-11T00:44:26.132Z,30.60
2018-04-11T00:46:53.907Z,32.60
2018-04-11T00:49:21.531Z,31.07
2018-04-11T00:51:49.167Z,27.13
2018-04-11T00:54:16.788Z,28.77
2018-04-11T00:56:44.419Z,31.10
2018-04-11T00:59:12.047Z,36.03
2018-04-11T01:01:39.679Z,30.73
2018-04-11T01:04:08.083Z,33.73
2018-04-11T01:06:35.710Z,31.13
2018-04-11T01:09:03.335Z,32.80
2018-04-11T01:11:30.962Z,31.07
2018-04-11T01:13:59.439Z,30.80
2018-04-11T01:16:27.062Z,37.17
2018-04-11T01:18:54.694Z,34.70
2018-04-11T01:21:22.323Z,33.07
2018-04-11T01:23:49.955Z,31.73
2018-04-11T01:26:17.579Z,32.80
2018-04-11T01:28:45.215Z,34.07
2018-04-11T01:31:12.841Z,31.30
2018-04-11T01:33:40.459Z,33.40
2018-04-11T01:39:00.456Z,34.27
2018-04-11T01:41:28.079Z,34.87
2018-04-11T01:43:55.703Z,32.40
2018-04-11T01:46:24.103Z,26.50
2018-04-11T01:48:51.730Z,29.20
2018-04-11T01:51:19.359Z,31.00
2018-04-11T01:53:46.991Z,31.63
2018-04-11T01:56:14.627Z,31.13
2018-04-11T01:58:42.247Z,30.67
2018-04-11T02:01:09.879Z,34.30
2018-04-11T02:03:38.267Z,30.97
2018-04-11T02:06:06.668Z,31.37
2018-04-11T02:08:34.303Z,30.23
2018-04-11T02:11:01.930Z,35.83
2018-04-11T02:13:29.551Z,32.30
2018-04-11T02:15:57.951Z,33.17
2018-04-11T02:18:25.579Z,36.50
2018-04-11T02:20:53.202Z,32.13
2018-04-11T02:23:20.838Z,36.10
2018-04-11T02:25:51.851Z,32.60
2018-04-11T02:28:19.483Z,30.57
2018-04-11T02:30:47.108Z,35.20
2018-04-11T02:33:14.739Z,30.73
2018-04-11T02:35:42.367Z,32.50
2018-04-11T02:38:09.999Z,32.53
2018-04-11T02:40:38.387Z,30.10
2018-04-11T02:43:06.788Z,32.50
2018-04-11T02:45:34.415Z,34.20
2018-04-11T02:48:02.044Z,34.20
2018-04-11T02:50:29.666Z,35.03
2018-04-11T02:52:58.063Z,32.87
2018-04-11T02:55:25.683Z,34.53
2018-04-11T02:57:53.307Z,34.23
2018-04-11T03:00:21.215Z,37.67
2018-04-11T03:02:48.842Z,34.73
2018-04-11T03:05:16.470Z,38.10
2018-04-11T03:07:44.102Z,40.83
2018-04-11T03:10:11.732Z,36.23
2018-04-11T03:12:39.361Z,37.30
2018-04-11T03:15:06.975Z,36.07
2018-04-11T03:17:34.603Z,39.73
2018-04-11T03:20:02.524Z,36.70
2018-04-11T03:22:30.151Z,37.93
2018-04-11T03:24:58.551Z,36.00
2018-04-11T03:27:26.184Z,38.70
2018-04-11T03:29:53.815Z,37.17
2018-04-11T03:32:21.456Z,42.93
2018-04-11T03:34:49.071Z,38.57
2018-04-11T03:37:16.719Z,39.57
2018-04-11T03:39:44.355Z,36.27
2018-04-11T03:42:11.979Z,37.33
2018-04-11T03:44:39.611Z,37.47
2018-04-11T03:47:07.245Z,35.43
2018-04-11T03:49:34.866Z,40.47
2018-04-11T03:52:02.493Z,40.00
2018-04-11T03:54:30.114Z,37.27
2018-04-11T03:56:57.744Z,37.67
2018-04-11T03:59:25.392Z,43.00
2018-04-11T04:01:53.008Z,39.22
2018-04-11T04:04:20.639Z,41.67
2018-04-11T04:06:48.270Z,40.93
2018-04-11T04:09:15.891Z,42.57
2018-04-11T04:11:43.519Z,44.27
2018-04-11T04:14:23.039Z,45.67
2018-04-11T04:17:02.568Z,41.17
2018-04-11T04:19:42.823Z,40.53
2018-04-11T04:22:11.206Z,42.70
2018-04-11T04:24:39.601Z,42.90
2018-04-11T04:27:07.236Z,42.77
2018-04-11T04:29:34.863Z,42.90
2018-04-11T04:32:04.208Z,42.33
2018-04-11T04:34:32.612Z,41.00
2018-04-11T04:37:01.014Z,43.93
2018-04-11T04:39:28.634Z,44.30
2018-04-11T04:41:56.267Z,41.23
2018-04-11T04:44:34.783Z,41.80
2018-04-11T04:47:02.413Z,42.87
2018-04-11T04:49:30.040Z,41.30
2018-04-11T04:51:59.171Z,46.80
2018-04-11T04:54:33.585Z,43.57
2018-04-11T04:57:01.175Z,46.73
2018-04-11T04:59:28.803Z,43.33
2018-04-11T05:01:56.441Z,42.73
2018-04-11T05:04:24.066Z,46.17
2018-04-11T05:06:51.691Z,44.20
2018-04-11T05:09:19.327Z,47.17
2018-04-11T05:11:46.960Z,46.47
2018-04-11T05:14:14.640Z,50.93
2018-04-11T05:16:42.220Z,50.87
2018-04-11T05:19:09.891Z,57.30
2018-04-11T05:21:37.522Z,62.97
2018-04-11T05:24:05.142Z,62.77
2018-04-11T05:26:32.777Z,69.03
2018-04-11T05:29:00.408Z,81.40
2018-04-11T05:31:28.803Z,68.63
2018-04-11T05:33:56.203Z,73.10
2018-04-11T05:36:29.891Z,70.97
2018-04-11T05:39:02.359Z,71.90
2018-04-11T05:41:29.980Z,72.57
2018-04-11T05:43:57.598Z,72.07
2018-04-11T05:46:25.631Z,76.83
2018-04-11T05:48:54.031Z,73.93
2018-04-11T05:51:21.674Z,73.27
2018-04-11T05:53:49.661Z,72.13
2018-04-11T05:56:17.288Z,76.23
2018-04-11T05:58:44.910Z,76.37
2018-04-11T06:01:12.539Z,75.37
2018-04-11T06:03:40.171Z,71.00
2018-04-11T06:06:07.795Z,74.13
2018-04-11T06:08:36.191Z,83.30
2018-04-11T06:11:03.818Z,86.33
2018-04-11T06:13:31.442Z,85.37
2018-04-11T06:15:59.077Z,79.03
2018-04-11T06:18:26.707Z,78.80
2018-04-11T06:20:54.334Z,67.23
2018-04-11T06:23:21.955Z,67.80
2018-04-11T06:25:49.589Z,67.60
2018-04-11T06:28:17.204Z,63.80
2018-04-11T06:30:45.606Z,61.77
2018-04-11T06:33:13.235Z,61.23
2018-04-11T06:35:40.862Z,60.07
2018-04-11T06:38:08.546Z,61.67
2018-04-11T06:40:36.166Z,62.43
2018-04-11T06:43:03.803Z,68.37
2018-04-11T06:45:31.428Z,67.43
2018-04-11T06:47:59.058Z,75.13
2018-04-11T06:50:26.683Z,96.67
2018-04-11T06:52:54.322Z,106.77
2018-04-11T06:55:21.943Z,129.30
2018-04-11T06:57:50.343Z,116.20
2018-04-11T07:00:18.174Z,124.97
2018-04-11T07:02:45.799Z,114.63
2018-04-11T07:05:13.442Z,125.83
2018-04-11T07:07:41.071Z,129.47
2018-04-11T07:10:08.907Z,147.00
2018-04-11T07:12:36.535Z,143.67
2018-04-11T07:15:04.175Z,146.83
2018-04-11T07:17:31.794Z,154.30
2018-04-11T07:19:59.423Z,151.00
2018-04-11T07:22:27.909Z,146.40
2018-04-11T07:24:56.311Z,146.93
2018-04-11T07:27:25.103Z,141.60
2018-04-11T07:29:52.731Z,135.63
2018-04-11T07:32:20.359Z,135.23
2018-04-11T07:34:47.987Z,130.73
2018-04-11T07:37:16.387Z,143.30
2018-04-11T07:39:44.011Z,135.30
2018-04-11T07:42:11.643Z,138.57
2018-04-11T07:44:39.279Z,140.13
2018-04-11T07:47:06.910Z,137.77
2018-04-11T07:49:34.539Z,140.57
2018-04-11T07:52:02.175Z,137.20
2018-04-11T07:54:29.810Z,136.83
2018-04-11T07:56:57.435Z,133.30
2018-04-11T07:59:25.062Z,138.33
2018-04-11T08:01:53.451Z,123.60
2018-04-11T08:04:21.092Z,126.37
2018-04-11T08:06:48.728Z,122.27
2018-04-11T08:09:16.360Z,134.90
2018-04-11T08:11:43.986Z,125.10
2018-04-11T08:14:11.672Z,126.20
2018-04-11T08:16:40.076Z,124.83
2018-04-11T08:19:07.707Z,120.47
2018-04-11T08:21:35.343Z,122.00
2018-04-11T08:24:02.970Z,123.43
2018-04-11T08:26:30.603Z,126.07
2018-04-11T08:28:58.264Z,122.07
2018-04-11T08:31:25.899Z,117.00
2018-04-11T08:33:53.535Z,113.53
2018-04-11T08:36:21.168Z,116.53
2018-04-11T08:38:48.796Z,112.03
2018-04-11T08:41:16.440Z,106.93
2018-04-11T08:43:44.071Z,110.13
2018-04-11T08:46:11.695Z,111.83
2018-04-11T08:48:39.339Z,103.17
2018-04-11T08:51:06.964Z,106.30
2018-04-11T08:53:34.591Z,97.43
2018-04-11T08:56:02.231Z,101.40
2018-04-11T08:58:29.859Z,87.43
2018-04-11T09:00:57.487Z,88.50
2018-04-11T09:03:25.116Z,84.53
2018-04-11T09:05:53.510Z,86.73
2018-04-11T09:08:21.131Z,82.40
2018-04-11T09:10:48.755Z,82.77
2018-04-11T09:13:16.382Z,83.23
2018-04-11T09:15:44.011Z,85.83
2018-04-11T09:18:11.636Z,67.40
2018-04-11T09:20:40.024Z,71.10
2018-04-11T09:23:07.652Z,63.30
2018-04-11T09:25:35.279Z,72.50
2018-04-11T09:28:02.910Z,74.47
2018-04-11T09:30:30.541Z,77.73
2018-04-11T09:32:58.206Z,79.07
2018-04-11T09:35:25.791Z,80.27
2018-04-11T09:37:53.419Z,76.77
2018-04-11T09:40:21.051Z,88.07
2018-04-11T09:42:48.674Z,67.87
2018-04-11T09:45:16.307Z,69.97
2018-04-11T09:47:43.935Z,69.93
2018-04-11T09:50:11.568Z,65.87
2018-04-11T09:52:39.203Z,65.30
2018-04-11T09:55:06.827Z,69.47
2018-04-11T09:57:35.227Z,62.57
2018-04-11T10:00:02.970Z,68.03
2018-04-11T10:02:30.590Z,73.10
2018-04-11T10:04:58.381Z,64.13
2018-04-11T10:07:25.983Z,61.23
2018-04-11T10:09:54.446Z,69.43
2018-04-11T10:12:22.136Z,47.73
2018-04-11T10:14:49.793Z,47.43
2018-04-11T10:17:17.443Z,46.03
2018-04-11T10:19:45.160Z,42.10
2018-04-11T10:22:12.857Z,41.17
2018-04-11T10:24:40.496Z,39.80
2018-04-11T10:27:08.178Z,37.53
2018-04-11T10:29:35.847Z,36.17
2018-04-11T10:32:03.493Z,37.10
2018-04-11T10:34:31.146Z,35.73
2018-04-11T10:36:58.789Z,34.50
2018-04-11T10:39:26.438Z,31.13
2018-04-11T10:41:54.079Z,29.37
2018-04-11T10:44:21.769Z,31.83
2018-04-11T10:46:49.429Z,31.17
2018-04-11T10:49:17.108Z,26.27
2018-04-11T10:51:44.780Z,20.87
2018-04-11T10:54:12.383Z,22.33
2018-04-11T10:56:40.181Z,16.27
2018-04-11T10:59:07.826Z,18.00
2018-04-11T11:01:36.186Z,18.03
2018-04-11T11:04:04.639Z,19.50
2018-04-11T11:06:32.276Z,24.90
2018-04-11T11:08:59.945Z,20.20
2018-04-11T11:11:27.606Z,19.97
2018-04-11T11:13:55.268Z,22.73
2018-04-11T11:16:22.945Z,22.67
2018-04-11T11:18:50.595Z,20.93
2018-04-11T11:21:18.255Z,18.43
2018-04-11T11:23:46.702Z,17.23
2018-04-11T11:26:14.361Z,20.73
2018-04-11T11:28:42.025Z,23.40
2018-04-11T11:31:09.677Z,22.47
2018-04-11T11:33:37.329Z,18.23
2018-04-11T11:36:04.993Z,16.37
2018-04-11T11:38:32.651Z,20.27
2018-04-11T11:41:00.323Z,24.80
2018-04-11T11:43:27.935Z,22.37
2018-04-11T11:45:55.561Z,17.07
2018-04-11T11:48:23.179Z,22.87
2018-04-11T11:50:50.802Z,21.70
2018-04-11T11:53:18.431Z,21.40
2018-04-11T11:55:46.064Z,19.37
2018-04-11T11:58:13.693Z,18.40
2018-04-11T12:00:41.328Z,18.47
2018-04-11T12:03:08.959Z,20.03
2018-04-11T12:05:36.587Z,18.43
2018-04-11T12:08:04.213Z,21.57
2018-04-11T12:10:31.843Z,21.40
2018-04-11T12:12:59.470Z,19.57
2018-04-11T12:15:27.100Z,17.07
2018-04-11T12:17:54.727Z,17.93
2018-04-11T12:20:22.359Z,19.20
2018-04-11T12:22:49.991Z,17.57
2018-04-11T12:25:17.614Z,19.40
2018-04-11T12:27:45.247Z,18.37
2018-04-11T12:30:12.875Z,18.73
2018-04-11T12:32:40.500Z,19.27
2018-04-11T12:35:08.134Z,18.67
2018-04-11T12:37:35.767Z,23.30
2018-04-11T12:40:03.390Z,20.23
2018-04-11T12:42:31.019Z,20.93
2018-04-11T12:44:58.647Z,19.13
2018-04-11T12:47:26.276Z,24.73
2018-04-11T12:49:53.910Z,25.00
2018-04-11T12:52:21.544Z,18.53
2018-04-11T12:54:49.170Z,20.00
2018-04-11T12:57:17.569Z,22.73
2018-04-11T12:59:45.191Z,22.07
2018-04-11T13:02:12.823Z,19.97
2018-04-11T13:04:40.455Z,23.97
2018-04-11T13:07:08.848Z,20.00
2018-04-11T13:09:36.462Z,22.57
2018-04-11T13:12:04.095Z,20.43
2018-04-11T13:14:31.723Z,21.77
2018-04-11T13:16:59.342Z,21.83
2018-04-11T13:19:26.970Z,19.27
2018-04-11T13:21:54.595Z,22.83
2018-04-11T13:24:22.214Z,20.60
2018-04-11T13:26:49.842Z,19.90
2018-04-11T13:29:17.486Z,23.43
2018-04-11T13:31:45.114Z,18.80
2018-04-11T13:34:12.743Z,19.63
2018-04-11T13:36:40.384Z,22.00
2018-04-11T13:39:07.986Z,20.17
2018-04-11T13:41:36.383Z,18.93
2018-04-11T13:44:04.007Z,22.57
2018-04-11T13:46:31.628Z,18.07
2018-04-11T13:48:59.247Z,19.27
2018-04-11T13:51:26.871Z,16.43
2018-04-11T13:53:54.514Z,16.10
2018-04-11T13:56:22.946Z,17.80
2018-04-11T13:58:50.523Z,17.27
2018-04-11T14:01:18.159Z,19.87
2018-04-11T14:03:45.787Z,22.60
2018-04-11T14:06:14.188Z,23.87
2018-04-11T14:08:41.811Z,17.27
2018-04-11T14:11:09.442Z,19.27
2018-04-11T14:13:37.072Z,17.90
2018-04-11T14:16:04.753Z,16.93
2018-04-11T14:18:32.385Z,18.87
2018-04-11T14:21:00.010Z,17.60
2018-04-11T14:23:27.633Z,18.37
2018-04-11T14:25:56.073Z,19.77
2018-04-11T14:28:23.664Z,18.63
2018-04-11T14:30:52.051Z,18.67
2018-04-11T14:33:20.458Z,18.20
2018-04-11T14:35:48.082Z,17.33
2018-04-11T14:38:15.712Z,15.70
2018-04-11T14:40:43.333Z,15.57
2018-04-11T14:43:11.722Z,16.50
2018-04-11T14:45:40.119Z,14.30
2018-04-11T14:48:07.738Z,13.57
2018-04-11T14:50:35.363Z,11.53
2018-04-11T14:53:02.984Z,13.77
2018-04-11T14:55:30.607Z,12.37
2018-04-11T14:57:58.226Z,10.77
2018-04-11T15:00:25.851Z,10.27
2018-04-11T15:02:53.479Z,6.47
2018-04-11T15:05:21.859Z,6.37
2018-04-11T15:07:50.246Z,5.53
2018-04-11T15:10:18.631Z,5.13
2018-04-11T15:12:46.242Z,5.43
2018-04-11T15:15:13.863Z,5.13
2018-04-11T15:17:41.487Z,5.30
2018-04-11T15:20:09.111Z,3.73
2018-04-11T15:22:36.727Z,5.33
2018-04-11T15:25:04.342Z,4.30
2018-04-11T15:27:32.003Z,3.93
2018-04-11T15:30:00.378Z,4.33
2018-04-11T15:32:28.006Z,4.13
2018-04-11T15:34:55.615Z,5.73
2018-04-11T15:37:23.243Z,4.47
2018-04-11T15:39:50.886Z,4.07
2018-04-11T15:42:18.506Z,4.40
2018-04-11T15:44:46.126Z,4.17
2018-04-11T15:47:13.796Z,4.70
2018-04-11T15:49:41.410Z,4.00
2018-04-11T15:52:09.031Z,5.20
2018-04-11T15:54:36.651Z,7.67
2018-04-11T15:57:04.263Z,6.23
2018-04-11T15:59:31.881Z,5.13
2018-04-11T16:01:59.511Z,4.77
2018-04-11T16:04:27.895Z,5.03
2018-04-11T16:06:56.375Z,4.03
2018-04-11T16:09:24.765Z,5.27
2018-04-11T16:11:53.157Z,4.07
2018-04-11T16:14:21.526Z,6.30
2018-04-11T16:16:49.916Z,4.00
2018-04-11T16:19:18.300Z,8.50
2018-04-11T16:21:46.682Z,5.27
2018-04-11T16:24:15.074Z,4.77
2018-04-11T16:26:43.450Z,5.23
2018-04-11T16:29:11.835Z,3.20
2018-04-11T16:31:40.220Z,4.73
2018-04-11T16:34:07.855Z,3.17
2018-04-11T16:36:35.475Z,3.60
2018-04-11T16:39:03.094Z,3.30
2018-04-11T16:41:30.714Z,3.90
2018-04-11T16:43:58.330Z,2.70
2018-04-11T16:46:26.714Z,4.80
2018-04-11T16:48:54.336Z,8.90
2018-04-11T16:51:21.959Z,3.30
2018-04-11T16:53:50.347Z,4.07
2018-04-11T16:56:17.968Z,4.17
2018-04-11T16:58:45.596Z,3.03
2018-04-11T17:01:13.216Z,3.60
2018-04-11T17:03:40.841Z,3.20
2018-04-11T17:06:08.467Z,3.73
2018-04-11T17:08:36.091Z,3.37
2018-04-11T17:11:03.712Z,3.20
2018-04-11T17:13:32.095Z,3.27
2018-04-11T17:15:59.710Z,4.03
2018-04-11T17:18:27.331Z,3.60
2018-04-11T17:21:06.844Z,3.87
2018-04-11T17:23:46.510Z,3.90
2018-04-11T17:26:26.138Z,3.93
2018-04-11T17:29:06.522Z,3.93
2018-04-11T17:31:34.155Z,3.97
2018-04-11T17:34:02.539Z,4.30
2018-04-11T17:36:30.933Z,5.13
2018-04-11T17:38:59.314Z,5.87
2018-04-11T17:41:27.715Z,4.27
2018-04-11T17:43:55.337Z,4.13
2018-04-11T17:46:22.958Z,4.00
2018-04-11T17:48:50.584Z,4.57
2018-04-11T17:51:18.245Z,4.37
2018-04-11T17:53:45.906Z,3.60
2018-04-11T17:56:13.551Z,6.43
2018-04-11T17:58:41.162Z,4.20
2018-04-11T18:01:08.785Z,5.40
2018-04-11T18:03:36.407Z,4.20
2018-04-11T18:06:04.030Z,4.60
2018-04-11T18:08:31.647Z,4.10
2018-04-11T18:10:59.275Z,4.80
2018-04-11T18:13:26.894Z,5.13
2018-04-11T18:15:54.517Z,3.90
2018-04-11T18:18:22.894Z,4.23
2018-04-11T18:20:51.284Z,4.83
2018-04-11T18:23:19.669Z,4.47
2018-04-11T18:25:48.054Z,4.93
2018-04-11T18:28:16.444Z,4.20
2018-04-11T18:30:47.851Z,6.10
2018-04-11T18:33:15.467Z,6.23
2018-04-11T18:35:43.086Z,5.87
2018-04-11T18:38:10.703Z,5.17
2018-04-11T18:40:38.323Z,6.13
2018-04-11T18:43:06.707Z,6.43
2018-04-11T18:45:34.327Z,6.37
2018-04-11T18:48:02.013Z,6.77
2018-04-11T18:50:29.619Z,5.77
2018-04-11T18:52:57.276Z,5.27
2018-04-11T18:55:24.920Z,5.87
2018-04-11T18:57:52.572Z,6.20
2018-04-11T19:00:20.460Z,8.17
2018-04-11T19:02:48.083Z,9.40
2018-04-11T19:05:15.716Z,6.37
2018-04-11T19:07:44.125Z,7.37
2018-04-11T19:10:11.723Z,6.97
2018-04-11T19:12:39.354Z,8.77
2018-04-11T19:15:07.735Z,7.23
2018-04-11T19:17:36.127Z,8.70
2018-04-11T19:20:03.742Z,6.93
2018-04-11T19:22:31.424Z,7.13
2018-04-11T19:24:59.050Z,8.87
2018-04-11T19:27:26.667Z,7.80
2018-04-11T19:29:55.050Z,8.67
2018-04-11T19:32:23.451Z,8.73
2018-04-11T19:34:51.832Z,9.80
2018-04-11T19:37:20.215Z,10.40
2018-04-11T19:39:47.844Z,10.30
2018-04-11T19:42:15.464Z,9.47
2018-04-11T19:44:43.092Z,15.70
2018-04-11T19:47:10.711Z,9.00
2018-04-11T19:49:38.328Z,8.13
2018-04-11T19:52:06.721Z,9.83
2018-04-11T19:54:34.352Z,13.37
2018-04-11T19:57:01.979Z,13.27
2018-04-11T19:59:29.603Z,10.67
2018-04-11T20:01:57.228Z,12.93
2018-04-11T20:04:24.851Z,11.90
2018-04-11T20:06:53.239Z,13.30
2018-04-11T20:09:20.897Z,12.33
2018-04-11T20:11:48.563Z,13.87
2018-04-11T20:14:16.955Z,12.93
2018-04-11T20:16:44.584Z,12.73
2018-04-11T20:19:12.203Z,15.67
2018-04-11T20:21:39.835Z,13.40
2018-04-11T20:24:08.233Z,14.20
2018-04-11T20:26:36.653Z,15.77
2018-04-11T20:29:04.254Z,15.57
2018-04-11T20:31:31.883Z,15.70
2018-04-11T20:33:59.516Z,17.03
2018-04-11T20:36:27.906Z,17.30
2018-04-11T20:38:55.535Z,15.67
2018-04-11T20:41:23.154Z,18.87
2018-04-11T20:43:50.778Z,21.30
2018-04-11T20:46:18.415Z,20.13
2018-04-11T20:48:46.054Z,21.17
2018-04-11T20:51:13.675Z,23.10
2018-04-11T20:53:42.070Z,20.40
2018-04-11T20:56:10.471Z,27.00
2018-04-11T20:58:38.090Z,27.90
2018-04-11T21:01:09.139Z,30.03
2018-04-11T21:03:37.611Z,29.07
2018-04-11T21:06:05.331Z,37.73
2018-04-11T21:08:33.013Z,37.03
2018-04-11T21:11:00.982Z,35.57
2018-04-11T21:13:28.643Z,39.07
2018-04-11T21:15:56.267Z,42.13
2018-04-11T21:18:23.886Z,42.30
2018-04-11T21:20:51.511Z,43.43
2018-04-11T21:23:19.906Z,45.87
2018-04-11T21:25:47.548Z,52.43
2018-04-11T21:28:18.900Z,57.70
2018-04-11T21:30:46.522Z,53.80
2018-04-11T21:33:14.151Z,47.20
2018-04-11T21:35:42.543Z,64.20
2018-04-11T21:38:10.183Z,57.57
2018-04-11T21:40:37.807Z,58.97
2018-04-11T21:43:05.431Z,49.90
2018-04-11T21:45:33.820Z,58.73
2018-04-11T21:48:02.211Z,63.40
2018-04-11T21:50:29.847Z,52.97
2018-04-11T21:52:58.242Z,56.13
2018-04-11T21:55:26.630Z,60.80
2018-04-11T21:57:55.031Z,59.17
2018-04-11T22:00:22.682Z,65.87
2018-04-11T22:02:51.078Z,67.63
2018-04-11T22:05:18.707Z,63.07
2018-04-11T22:07:46.335Z,63.00
2018-04-11T22:10:13.959Z,71.13
2018-04-11T22:12:42.359Z,73.77
2018-04-11T22:15:10.039Z,81.33
2018-04-11T22:17:37.620Z,84.83
2018-04-11T22:20:05.248Z,74.87
2018-04-11T22:22:33.639Z,78.67
2018-04-11T22:25:01.278Z,78.97
2018-04-11T22:27:28.899Z,71.17
2018-04-11T22:29:56.534Z,72.40
2018-04-11T22:32:24.931Z,69.07
2018-04-11T22:34:52.551Z,74.90
2018-04-11T22:37:20.183Z,71.23
2018-04-11T22:39:51.214Z,65.47
2018-04-11T22:42:18.883Z,79.97
2018-04-11T22:44:47.259Z,81.50
2018-04-11T22:47:15.630Z,81.70
2018-04-11T22:49:43.264Z,83.73
2018-04-11T22:52:10.888Z,84.20
2018-04-11T22:54:38.508Z,80.97
2018-04-11T22:57:06.149Z,83.67
2018-04-11T22:59:33.775Z,101.03
2018-04-11T23:02:01.404Z,105.73
2018-04-11T23:04:29.807Z,114.17
2018-04-11T23:06:57.430Z,104.97
2018-04-11T23:09:25.069Z,110.10
2018-04-11T23:11:52.695Z,112.80
2018-04-11T23:14:21.096Z,108.63
2018-04-11T23:16:48.720Z,105.67
2018-04-11T23:19:16.353Z,110.53
2018-04-11T23:21:43.984Z,113.93
2018-04-11T23:24:11.611Z,118.73
2018-04-11T23:26:39.294Z,104.97
2018-04-11T23:29:06.887Z,104.17
2018-04-11T23:31:34.519Z,110.63
2018-04-11T23:34:02.151Z,104.77
2018-04-11T23:36:29.783Z,113.27
2018-04-11T23:38:57.419Z,109.23
2018-04-11T23:41:25.038Z,87.33
2018-04-11T23:43:52.667Z,94.23
2018-04-11T23:46:21.062Z,89.90
2018-04-11T23:48:48.686Z,104.27
2018-04-11T23:51:16.319Z,99.30
2018-04-11T23:53:43.947Z,94.37
2018-04-11T23:56:12.342Z,103.10
2018-04-11T23:58:39.976Z,108.53
